sensor_id;sensor_type;location;lat;lon;timestamp;temperature;humidity
32027;DHT22;18543;50.848;4.596;2022-11-09T00:01:03;22.40;63.40
32027;DHT22;18543;50.848;4.596;2022-11-09T00:03:30;22.40;63.40
32027;DHT22;18543;50.848;4.596;2022-11-09T00:05:57;22.40;63.30
32027;DHT22;18543;50.848;4.596;2022-11-09T00:08:25;22.50;63.90
32027;DHT22;18543;50.848;4.596;2022-11-09T00:10:52;22.50;63.40
32027;DHT22;18543;50.848;4.596;2022-11-09T00:13:18;22.50;63.30
32027;DHT22;18543;50.848;4.596;2022-11-09T00:15:46;22.50;63.40
32027;DHT22;18543;50.848;4.596;2022-11-09T00:18:12;22.50;63.40
32027;DHT22;18543;50.848;4.596;2022-11-09T00:20:39;22.50;63.30
32027;DHT22;18543;50.848;4.596;2022-11-09T00:23:13;22.50;63.30
32027;DHT22;18543;50.848;4.596;2022-11-09T00:25:40;22.50;63.30
32027;DHT22;18543;50.848;4.596;2022-11-09T00:28:07;22.50;63.30
32027;DHT22;18543;50.848;4.596;2022-11-09T00:30:33;22.50;63.30
32027;DHT22;18543;50.848;4.596;2022-11-09T00:33:00;22.50;63.30
32027;DHT22;18543;50.848;4.596;2022-11-09T00:35:27;22.50;63.30
32027;DHT22;18543;50.848;4.596;2022-11-09T00:37:54;22.50;63.30
32027;DHT22;18543;50.848;4.596;2022-11-09T00:40:21;22.50;63.30
32027;DHT22;18543;50.848;4.596;2022-11-09T00:42:47;22.50;63.40
32027;DHT22;18543;50.848;4.596;2022-11-09T00:45:14;22.50;63.40
32027;DHT22;18543;50.848;4.596;2022-11-09T00:47:41;22.50;63.30
32027;DHT22;18543;50.848;4.596;2022-11-09T00:50:08;22.50;63.30
32027;DHT22;18543;50.848;4.596;2022-11-09T00:52:35;22.50;63.30
32027;DHT22;18543;50.848;4.596;2022-11-09T00:55:02;22.50;63.30
32027;DHT22;18543;50.848;4.596;2022-11-09T00:57:29;22.50;63.30
32027;DHT22;18543;50.848;4.596;2022-11-09T00:59:56;22.50;63.30
32027;DHT22;18543;50.848;4.596;2022-11-09T01:02:23;22.50;63.30
32027;DHT22;18543;50.848;4.596;2022-11-09T01:04:49;22.50;63.30
32027;DHT22;18543;50.848;4.596;2022-11-09T01:07:16;22.50;63.30
32027;DHT22;18543;50.848;4.596;2022-11-09T01:09:43;22.50;63.20
32027;DHT22;18543;50.848;4.596;2022-11-09T01:12:10;22.50;63.30
32027;DHT22;18543;50.848;4.596;2022-11-09T01:14:37;22.50;63.30
32027;DHT22;18543;50.848;4.596;2022-11-09T01:17:03;22.50;63.30
32027;DHT22;18543;50.848;4.596;2022-11-09T01:19:30;22.50;63.30
32027;DHT22;18543;50.848;4.596;2022-11-09T01:21:57;22.50;63.30
32027;DHT22;18543;50.848;4.596;2022-11-09T01:24:24;22.50;63.30
32027;DHT22;18543;50.848;4.596;2022-11-09T01:26:51;22.50;63.30
32027;DHT22;18543;50.848;4.596;2022-11-09T01:29:17;22.50;63.30
32027;DHT22;18543;50.848;4.596;2022-11-09T01:31:44;22.50;63.30
32027;DHT22;18543;50.848;4.596;2022-11-09T01:34:12;22.50;63.30
32027;DHT22;18543;50.848;4.596;2022-11-09T01:36:39;22.50;63.30
32027;DHT22;18543;50.848;4.596;2022-11-09T01:39:07;22.50;63.30
32027;DHT22;18543;50.848;4.596;2022-11-09T01:41:34;22.50;63.30
32027;DHT22;18543;50.848;4.596;2022-11-09T01:44:12;22.50;63.30
32027;DHT22;18543;50.848;4.596;2022-11-09T01:49:21;22.50;63.30
32027;DHT22;18543;50.848;4.596;2022-11-09T01:51:57;22.50;63.30
32027;DHT22;18543;50.848;4.596;2022-11-09T01:54:34;22.50;63.30
32027;DHT22;18543;50.848;4.596;2022-11-09T01:57:07;22.50;63.30
32027;DHT22;18543;50.848;4.596;2022-11-09T01:59:39;22.50;63.30
32027;DHT22;18543;50.848;4.596;2022-11-09T02:02:08;22.50;63.40
32027;DHT22;18543;50.848;4.596;2022-11-09T02:04:42;22.50;63.30
32027;DHT22;18543;50.848;4.596;2022-11-09T02:07:12;22.50;63.40
32027;DHT22;18543;50.848;4.596;2022-11-09T02:09:51;22.50;63.30
32027;DHT22;18543;50.848;4.596;2022-11-09T02:12:21;22.50;63.30
32027;DHT22;18543;50.848;4.596;2022-11-09T02:14:52;22.50;63.40
32027;DHT22;18543;50.848;4.596;2022-11-09T02:17:19;22.50;63.40
32027;DHT22;18543;50.848;4.596;2022-11-09T02:19:46;22.50;63.40
32027;DHT22;18543;50.848;4.596;2022-11-09T02:22:13;22.50;63.40
32027;DHT22;18543;50.848;4.596;2022-11-09T02:24:40;22.50;63.40
32027;DHT22;18543;50.848;4.596;2022-11-09T02:27:07;22.50;63.40
32027;DHT22;18543;50.848;4.596;2022-11-09T02:29:37;22.50;63.40
32027;DHT22;18543;50.848;4.596;2022-11-09T02:32:11;22.50;63.40
32027;DHT22;18543;50.848;4.596;2022-11-09T02:34:39;22.50;63.40
32027;DHT22;18543;50.848;4.596;2022-11-09T02:37:05;22.50;63.40
32027;DHT22;18543;50.848;4.596;2022-11-09T02:39:33;22.50;64.00
32027;DHT22;18543;50.848;4.596;2022-11-09T02:42:12;22.50;63.40
32027;DHT22;18543;50.848;4.596;2022-11-09T02:44:50;22.50;63.40
32027;DHT22;18543;50.848;4.596;2022-11-09T02:47:17;22.50;63.40
32027;DHT22;18543;50.848;4.596;2022-11-09T02:49:44;22.50;63.50
32027;DHT22;18543;50.848;4.596;2022-11-09T02:52:11;22.50;63.40
32027;DHT22;18543;50.848;4.596;2022-11-09T02:54:37;22.50;63.50
32027;DHT22;18543;50.848;4.596;2022-11-09T02:57:04;22.50;63.50
32027;DHT22;18543;50.848;4.596;2022-11-09T02:59:31;22.50;63.50
32027;DHT22;18543;50.848;4.596;2022-11-09T03:02:00;22.40;63.40
32027;DHT22;18543;50.848;4.596;2022-11-09T03:04:29;22.50;63.50
32027;DHT22;18543;50.848;4.596;2022-11-09T03:06:56;22.50;63.50
32027;DHT22;18543;50.848;4.596;2022-11-09T03:09:23;22.50;63.50
32027;DHT22;18543;50.848;4.596;2022-11-09T03:11:49;22.50;63.40
32027;DHT22;18543;50.848;4.596;2022-11-09T03:14:16;22.50;63.50
32027;DHT22;18543;50.848;4.596;2022-11-09T03:16:43;22.50;63.50
32027;DHT22;18543;50.848;4.596;2022-11-09T03:19:16;22.50;63.50
32027;DHT22;18543;50.848;4.596;2022-11-09T03:21:42;22.50;63.50
32027;DHT22;18543;50.848;4.596;2022-11-09T03:24:09;22.50;63.50
32027;DHT22;18543;50.848;4.596;2022-11-09T03:26:36;22.50;63.50
32027;DHT22;18543;50.848;4.596;2022-11-09T03:29:03;22.50;63.50
32027;DHT22;18543;50.848;4.596;2022-11-09T03:31:29;22.50;64.10
32027;DHT22;18543;50.848;4.596;2022-11-09T03:33:56;22.50;63.50
32027;DHT22;18543;50.848;4.596;2022-11-09T03:36:23;22.50;63.50
32027;DHT22;18543;50.848;4.596;2022-11-09T03:38:50;22.50;63.50
32027;DHT22;18543;50.848;4.596;2022-11-09T03:41:17;22.50;63.50
32027;DHT22;18543;50.848;4.596;2022-11-09T03:43:44;22.50;63.50
32027;DHT22;18543;50.848;4.596;2022-11-09T03:46:10;22.50;63.50
32027;DHT22;18543;50.848;4.596;2022-11-09T03:48:37;22.50;63.50
32027;DHT22;18543;50.848;4.596;2022-11-09T03:51:04;22.50;63.50
32027;DHT22;18543;50.848;4.596;2022-11-09T03:53:31;22.40;63.50
32027;DHT22;18543;50.848;4.596;2022-11-09T03:55:58;22.40;63.50
32027;DHT22;18543;50.848;4.596;2022-11-09T03:58:24;22.40;63.50
32027;DHT22;18543;50.848;4.596;2022-11-09T04:00:51;22.40;63.50
32027;DHT22;18543;50.848;4.596;2022-11-09T04:03:18;22.50;63.50
32027;DHT22;18543;50.848;4.596;2022-11-09T04:05:47;22.40;63.50
32027;DHT22;18543;50.848;4.596;2022-11-09T04:08:14;22.40;63.50
32027;DHT22;18543;50.848;4.596;2022-11-09T04:10:41;22.40;63.50
32027;DHT22;18543;50.848;4.596;2022-11-09T04:13:07;22.40;63.50
32027;DHT22;18543;50.848;4.596;2022-11-09T04:15:34;22.40;63.60
32027;DHT22;18543;50.848;4.596;2022-11-09T04:18:01;22.40;63.60
32027;DHT22;18543;50.848;4.596;2022-11-09T04:20:30;22.40;63.60
32027;DHT22;18543;50.848;4.596;2022-11-09T04:22:57;22.40;63.50
32027;DHT22;18543;50.848;4.596;2022-11-09T04:25:25;22.40;63.50
32027;DHT22;18543;50.848;4.596;2022-11-09T04:27:56;22.40;63.60
32027;DHT22;18543;50.848;4.596;2022-11-09T04:30:24;22.40;63.60
32027;DHT22;18543;50.848;4.596;2022-11-09T04:32:57;22.40;63.60
32027;DHT22;18543;50.848;4.596;2022-11-09T04:35:27;22.40;63.60
32027;DHT22;18543;50.848;4.596;2022-11-09T04:40:26;22.40;63.60
32027;DHT22;18543;50.848;4.596;2022-11-09T04:42:54;22.40;63.60
32027;DHT22;18543;50.848;4.596;2022-11-09T04:45:21;22.40;63.60
32027;DHT22;18543;50.848;4.596;2022-11-09T04:47:50;22.40;63.60
32027;DHT22;18543;50.848;4.596;2022-11-09T04:50:19;22.40;64.20
32027;DHT22;18543;50.848;4.596;2022-11-09T04:52:46;22.40;63.70
32027;DHT22;18543;50.848;4.596;2022-11-09T04:55:13;22.40;63.60
32027;DHT22;18543;50.848;4.596;2022-11-09T04:57:39;22.40;63.60
32027;DHT22;18543;50.848;4.596;2022-11-09T05:00:07;22.30;63.60
32027;DHT22;18543;50.848;4.596;2022-11-09T05:02:34;22.30;63.60
32027;DHT22;18543;50.848;4.596;2022-11-09T05:05:00;22.40;63.60
32027;DHT22;18543;50.848;4.596;2022-11-09T05:07:27;22.40;63.70
32027;DHT22;18543;50.848;4.596;2022-11-09T05:09:54;22.40;63.70
32027;DHT22;18543;50.848;4.596;2022-11-09T05:12:23;22.40;63.70
32027;DHT22;18543;50.848;4.596;2022-11-09T05:14:50;22.30;63.70
32027;DHT22;18543;50.848;4.596;2022-11-09T05:17:16;22.30;63.70
32027;DHT22;18543;50.848;4.596;2022-11-09T05:19:43;22.30;63.70
32027;DHT22;18543;50.848;4.596;2022-11-09T05:22:10;22.30;63.60
32027;DHT22;18543;50.848;4.596;2022-11-09T05:24:55;22.30;63.60
32027;DHT22;18543;50.848;4.596;2022-11-09T05:27:22;22.30;63.60
32027;DHT22;18543;50.848;4.596;2022-11-09T05:29:48;22.30;63.70
32027;DHT22;18543;50.848;4.596;2022-11-09T05:32:15;22.30;63.60
32027;DHT22;18543;50.848;4.596;2022-11-09T05:34:42;22.30;63.70
32027;DHT22;18543;50.848;4.596;2022-11-09T05:37:09;22.30;63.60
32027;DHT22;18543;50.848;4.596;2022-11-09T05:39:35;22.30;63.70
32027;DHT22;18543;50.848;4.596;2022-11-09T05:42:02;22.30;63.70
32027;DHT22;18543;50.848;4.596;2022-11-09T05:44:29;22.30;63.60
32027;DHT22;18543;50.848;4.596;2022-11-09T05:46:56;22.30;63.60
32027;DHT22;18543;50.848;4.596;2022-11-09T05:49:23;22.30;63.60
32027;DHT22;18543;50.848;4.596;2022-11-09T05:51:49;22.30;63.70
32027;DHT22;18543;50.848;4.596;2022-11-09T05:54:16;22.30;63.70
32027;DHT22;18543;50.848;4.596;2022-11-09T05:56:43;22.30;63.70
32027;DHT22;18543;50.848;4.596;2022-11-09T05:59:10;22.30;63.70
32027;DHT22;18543;50.848;4.596;2022-11-09T06:01:36;22.30;63.70
32027;DHT22;18543;50.848;4.596;2022-11-09T06:04:03;22.30;63.70
32027;DHT22;18543;50.848;4.596;2022-11-09T06:06:30;22.20;63.60
32027;DHT22;18543;50.848;4.596;2022-11-09T06:08:57;22.20;63.60
32027;DHT22;18543;50.848;4.596;2022-11-09T06:11:23;22.20;63.60
32027;DHT22;18543;50.848;4.596;2022-11-09T06:13:51;22.20;63.60
32027;DHT22;18543;50.848;4.596;2022-11-09T06:16:18;22.20;63.60
32027;DHT22;18543;50.848;4.596;2022-11-09T06:18:45;22.20;63.60
32027;DHT22;18543;50.848;4.596;2022-11-09T06:21:12;22.20;63.60
32027;DHT22;18543;50.848;4.596;2022-11-09T06:23:39;22.20;63.60
32027;DHT22;18543;50.848;4.596;2022-11-09T06:26:08;22.20;63.60
32027;DHT22;18543;50.848;4.596;2022-11-09T06:28:36;22.20;63.70
32027;DHT22;18543;50.848;4.596;2022-11-09T06:31:05;22.20;63.60
32027;DHT22;18543;50.848;4.596;2022-11-09T06:33:33;22.20;63.60
32027;DHT22;18543;50.848;4.596;2022-11-09T06:36:01;22.20;63.70
32027;DHT22;18543;50.848;4.596;2022-11-09T06:38:28;22.20;63.70
32027;DHT22;18543;50.848;4.596;2022-11-09T06:40:57;22.20;63.70
32027;DHT22;18543;50.848;4.596;2022-11-09T06:43:24;22.20;63.70
32027;DHT22;18543;50.848;4.596;2022-11-09T06:45:51;22.20;63.70
32027;DHT22;18543;50.848;4.596;2022-11-09T06:48:19;22.20;63.70
32027;DHT22;18543;50.848;4.596;2022-11-09T06:50:46;22.20;63.70
32027;DHT22;18543;50.848;4.596;2022-11-09T06:53:14;22.20;63.70
32027;DHT22;18543;50.848;4.596;2022-11-09T06:55:41;22.20;63.70
32027;DHT22;18543;50.848;4.596;2022-11-09T06:58:15;22.20;63.70
32027;DHT22;18543;50.848;4.596;2022-11-09T07:00:43;22.20;63.70
32027;DHT22;18543;50.848;4.596;2022-11-09T07:03:13;22.20;63.70
32027;DHT22;18543;50.848;4.596;2022-11-09T07:05:41;22.20;63.70
32027;DHT22;18543;50.848;4.596;2022-11-09T07:08:08;22.20;63.70
32027;DHT22;18543;50.848;4.596;2022-11-09T07:10:35;22.20;63.70
32027;DHT22;18543;50.848;4.596;2022-11-09T07:13:03;22.20;63.70
32027;DHT22;18543;50.848;4.596;2022-11-09T07:15:31;22.20;63.70
32027;DHT22;18543;50.848;4.596;2022-11-09T07:17:59;22.00;62.70
32027;DHT22;18543;50.848;4.596;2022-11-09T07:20:27;22.00;63.50
32027;DHT22;18543;50.848;4.596;2022-11-09T07:22:54;22.00;63.70
32027;DHT22;18543;50.848;4.596;2022-11-09T07:25:22;22.00;63.60
32027;DHT22;18543;50.848;4.596;2022-11-09T07:27:50;22.00;63.70
32027;DHT22;18543;50.848;4.596;2022-11-09T07:30:17;22.00;63.80
32027;DHT22;18543;50.848;4.596;2022-11-09T07:32:44;22.00;63.80
32027;DHT22;18543;50.848;4.596;2022-11-09T07:35:31;22.00;63.80
32027;DHT22;18543;50.848;4.596;2022-11-09T07:38:01;22.00;63.80
32027;DHT22;18543;50.848;4.596;2022-11-09T07:40:28;22.00;63.80
32027;DHT22;18543;50.848;4.596;2022-11-09T07:43:03;22.00;63.80
32027;DHT22;18543;50.848;4.596;2022-11-09T07:45:32;22.00;63.80
32027;DHT22;18543;50.848;4.596;2022-11-09T07:48:02;22.00;63.80
32027;DHT22;18543;50.848;4.596;2022-11-09T07:50:31;22.00;63.90
32027;DHT22;18543;50.848;4.596;2022-11-09T07:52:58;22.00;63.80
32027;DHT22;18543;50.848;4.596;2022-11-09T07:55:26;22.00;63.80
32027;DHT22;18543;50.848;4.596;2022-11-09T07:57:57;22.00;63.80
32027;DHT22;18543;50.848;4.596;2022-11-09T08:00:25;22.00;63.80
32027;DHT22;18543;50.848;4.596;2022-11-09T08:02:52;22.00;63.80
32027;DHT22;18543;50.848;4.596;2022-11-09T08:05:20;22.00;63.80
32027;DHT22;18543;50.848;4.596;2022-11-09T08:07:47;22.00;63.80
32027;DHT22;18543;50.848;4.596;2022-11-09T08:10:14;22.00;63.80
32027;DHT22;18543;50.848;4.596;2022-11-09T08:12:41;22.10;63.90
32027;DHT22;18543;50.848;4.596;2022-11-09T08:15:08;22.00;63.70
32027;DHT22;18543;50.848;4.596;2022-11-09T08:17:35;22.00;63.70
32027;DHT22;18543;50.848;4.596;2022-11-09T08:20:02;22.00;63.70
32027;DHT22;18543;50.848;4.596;2022-11-09T08:22:29;22.00;63.00
32027;DHT22;18543;50.848;4.596;2022-11-09T08:24:56;22.00;63.00
32027;DHT22;18543;50.848;4.596;2022-11-09T08:27:23;21.90;63.50
32027;DHT22;18543;50.848;4.596;2022-11-09T08:29:50;21.90;63.00
32027;DHT22;18543;50.848;4.596;2022-11-09T08:32:17;21.90;63.10
32027;DHT22;18543;50.848;4.596;2022-11-09T08:34:47;21.90;63.20
32027;DHT22;18543;50.848;4.596;2022-11-09T08:37:14;22.00;63.30
32027;DHT22;18543;50.848;4.596;2022-11-09T08:39:41;22.00;63.30
32027;DHT22;18543;50.848;4.596;2022-11-09T08:42:11;22.00;63.30
32027;DHT22;18543;50.848;4.596;2022-11-09T08:44:37;22.00;63.30
32027;DHT22;18543;50.848;4.596;2022-11-09T08:47:04;22.10;63.30
32027;DHT22;18543;50.848;4.596;2022-11-09T08:49:32;22.10;63.30
32027;DHT22;18543;50.848;4.596;2022-11-09T08:51:58;22.10;63.20
32027;DHT22;18543;50.848;4.596;2022-11-09T08:54:28;22.10;63.30
32027;DHT22;18543;50.848;4.596;2022-11-09T08:56:55;22.10;63.20
32027;DHT22;18543;50.848;4.596;2022-11-09T08:59:22;22.20;63.30
32027;DHT22;18543;50.848;4.596;2022-11-09T09:01:49;22.20;63.20
32027;DHT22;18543;50.848;4.596;2022-11-09T09:04:17;22.20;63.80
32027;DHT22;18543;50.848;4.596;2022-11-09T09:06:43;22.20;63.20
32027;DHT22;18543;50.848;4.596;2022-11-09T09:09:10;22.20;63.10
32027;DHT22;18543;50.848;4.596;2022-11-09T09:11:37;22.20;63.10
32027;DHT22;18543;50.848;4.596;2022-11-09T09:14:05;22.30;63.20
32027;DHT22;18543;50.848;4.596;2022-11-09T09:16:32;22.30;63.10
32027;DHT22;18543;50.848;4.596;2022-11-09T09:18:59;22.30;63.10
32027;DHT22;18543;50.848;4.596;2022-11-09T09:21:26;22.40;63.10
32027;DHT22;18543;50.848;4.596;2022-11-09T09:23:53;22.40;63.20
32027;DHT22;18543;50.848;4.596;2022-11-09T09:26:20;22.40;63.00
32027;DHT22;18543;50.848;4.596;2022-11-09T09:28:47;22.30;62.10
32027;DHT22;18543;50.848;4.596;2022-11-09T09:31:14;22.30;62.50
32027;DHT22;18543;50.848;4.596;2022-11-09T09:33:44;22.30;62.50
32027;DHT22;18543;50.848;4.596;2022-11-09T09:36:17;22.40;62.50
32027;DHT22;18543;50.848;4.596;2022-11-09T09:38:45;22.40;62.60
32027;DHT22;18543;50.848;4.596;2022-11-09T09:41:22;22.50;63.20
32027;DHT22;18543;50.848;4.596;2022-11-09T09:43:56;22.50;62.60
32027;DHT22;18543;50.848;4.596;2022-11-09T09:46:38;22.50;62.50
32027;DHT22;18543;50.848;4.596;2022-11-09T09:49:22;22.50;62.60
32027;DHT22;18543;50.848;4.596;2022-11-09T09:57:35;22.60;62.70
32027;DHT22;18543;50.848;4.596;2022-11-09T10:00:18;22.60;62.80
32027;DHT22;18543;50.848;4.596;2022-11-09T10:02:46;22.60;62.80
32027;DHT22;18543;50.848;4.596;2022-11-09T10:05:14;22.60;62.80
32027;DHT22;18543;50.848;4.596;2022-11-09T10:07:44;22.60;62.80
32027;DHT22;18543;50.848;4.596;2022-11-09T10:18:46;22.60;62.90
32027;DHT22;18543;50.848;4.596;2022-11-09T10:26:45;22.60;63.10
32027;DHT22;18543;50.848;4.596;2022-11-09T10:29:21;22.60;63.10
32027;DHT22;18543;50.848;4.596;2022-11-09T10:31:54;22.60;63.00
32027;DHT22;18543;50.848;4.596;2022-11-09T10:34:36;22.60;63.10
32027;DHT22;18543;50.848;4.596;2022-11-09T10:37:14;22.60;63.10
32027;DHT22;18543;50.848;4.596;2022-11-09T10:39:55;22.60;63.20
32027;DHT22;18543;50.848;4.596;2022-11-09T10:42:24;22.60;63.10
32027;DHT22;18543;50.848;4.596;2022-11-09T10:44:50;22.60;63.10
32027;DHT22;18543;50.848;4.596;2022-11-09T10:47:18;22.60;63.20
32027;DHT22;18543;50.848;4.596;2022-11-09T10:49:45;22.60;63.20
32027;DHT22;18543;50.848;4.596;2022-11-09T10:52:35;22.60;63.20
32027;DHT22;18543;50.848;4.596;2022-11-09T10:55:27;22.60;63.20
32027;DHT22;18543;50.848;4.596;2022-11-09T10:58:00;22.60;63.20
32027;DHT22;18543;50.848;4.596;2022-11-09T11:00:28;22.60;63.30
32027;DHT22;18543;50.848;4.596;2022-11-09T11:02:55;22.60;63.30
32027;DHT22;18543;50.848;4.596;2022-11-09T11:05:26;22.60;63.30
32027;DHT22;18543;50.848;4.596;2022-11-09T11:07:54;22.50;63.30
32027;DHT22;18543;50.848;4.596;2022-11-09T11:10:22;22.50;63.30
32027;DHT22;18543;50.848;4.596;2022-11-09T11:15:34;22.60;63.30
32027;DHT22;18543;50.848;4.596;2022-11-09T11:18:03;22.50;63.30
32027;DHT22;18543;50.848;4.596;2022-11-09T11:20:35;22.50;63.30
32027;DHT22;18543;50.848;4.596;2022-11-09T11:25:58;22.60;63.30
32027;DHT22;18543;50.848;4.596;2022-11-09T11:29:03;22.50;63.40
32027;DHT22;18543;50.848;4.596;2022-11-09T11:31:32;22.50;62.90
32027;DHT22;18543;50.848;4.596;2022-11-09T11:34:00;22.50;63.30
32027;DHT22;18543;50.848;4.596;2022-11-09T11:36:43;22.50;63.30
32027;DHT22;18543;50.848;4.596;2022-11-09T11:39:30;22.50;63.50
32027;DHT22;18543;50.848;4.596;2022-11-09T11:47:30;22.50;63.40
32027;DHT22;18543;50.848;4.596;2022-11-09T11:52:58;22.50;63.40
32027;DHT22;18543;50.848;4.596;2022-11-09T12:07:09;22.50;63.40
32027;DHT22;18543;50.848;4.596;2022-11-09T12:10:03;22.50;63.30
32027;DHT22;18543;50.848;4.596;2022-11-09T12:15:20;22.50;63.40
32027;DHT22;18543;50.848;4.596;2022-11-09T12:37:38;22.50;63.50
32027;DHT22;18543;50.848;4.596;2022-11-09T12:42:45;22.50;63.50
32027;DHT22;18543;50.848;4.596;2022-11-09T12:47:50;22.50;63.60
32027;DHT22;18543;50.848;4.596;2022-11-09T12:50:23;22.40;63.50
32027;DHT22;18543;50.848;4.596;2022-11-09T12:52:51;22.50;63.50
32027;DHT22;18543;50.848;4.596;2022-11-09T12:58:32;22.50;63.40
32027;DHT22;18543;50.848;4.596;2022-11-09T13:01:02;22.50;63.40
32027;DHT22;18543;50.848;4.596;2022-11-09T13:03:32;22.50;63.40
32027;DHT22;18543;50.848;4.596;2022-11-09T13:06:16;22.50;63.50
32027;DHT22;18543;50.848;4.596;2022-11-09T13:08:55;22.50;63.40
32027;DHT22;18543;50.848;4.596;2022-11-09T13:11:41;22.50;63.40
32027;DHT22;18543;50.848;4.596;2022-11-09T13:16:48;22.50;63.50
32027;DHT22;18543;50.848;4.596;2022-11-09T13:22:01;22.50;63.60
32027;DHT22;18543;50.848;4.596;2022-11-09T13:26:58;22.40;63.30
32027;DHT22;18543;50.848;4.596;2022-11-09T13:34:44;22.40;63.30
32027;DHT22;18543;50.848;4.596;2022-11-09T13:37:43;22.40;63.40
32027;DHT22;18543;50.848;4.596;2022-11-09T13:43:23;22.30;63.60
32027;DHT22;18543;50.848;4.596;2022-11-09T13:45:59;22.40;63.70
32027;DHT22;18543;50.848;4.596;2022-11-09T13:48:40;22.40;63.80
32027;DHT22;18543;50.848;4.596;2022-11-09T14:01:53;22.40;63.90
32027;DHT22;18543;50.848;4.596;2022-11-09T14:07:04;22.40;64.00
32027;DHT22;18543;50.848;4.596;2022-11-09T14:23:48;22.40;64.20
32027;DHT22;18543;50.848;4.596;2022-11-09T14:26:18;22.30;64.20
32027;DHT22;18543;50.848;4.596;2022-11-09T14:28:45;22.30;64.30
32027;DHT22;18543;50.848;4.596;2022-11-09T14:31:22;22.30;64.20
32027;DHT22;18543;50.848;4.596;2022-11-09T14:34:04;22.30;64.10
32027;DHT22;18543;50.848;4.596;2022-11-09T14:36:33;22.30;63.60
32027;DHT22;18543;50.848;4.596;2022-11-09T14:39:03;22.30;63.30
32027;DHT22;18543;50.848;4.596;2022-11-09T14:41:31;22.20;63.40
32027;DHT22;18543;50.848;4.596;2022-11-09T14:43:58;22.30;63.60
32027;DHT22;18543;50.848;4.596;2022-11-09T14:46:28;22.30;63.70
32027;DHT22;18543;50.848;4.596;2022-11-09T14:49:00;22.30;63.70
32027;DHT22;18543;50.848;4.596;2022-11-09T14:51:36;22.30;63.70
32027;DHT22;18543;50.848;4.596;2022-11-09T14:54:12;22.30;63.30
32027;DHT22;18543;50.848;4.596;2022-11-09T14:56:40;22.20;63.30
32027;DHT22;18543;50.848;4.596;2022-11-09T14:59:12;22.20;63.10
32027;DHT22;18543;50.848;4.596;2022-11-09T15:01:39;22.20;63.20
32027;DHT22;18543;50.848;4.596;2022-11-09T15:04:15;22.30;63.20
32027;DHT22;18543;50.848;4.596;2022-11-09T15:06:53;22.20;63.00
32027;DHT22;18543;50.848;4.596;2022-11-09T15:09:26;22.20;63.00
32027;DHT22;18543;50.848;4.596;2022-11-09T15:11:55;22.20;63.00
32027;DHT22;18543;50.848;4.596;2022-11-09T15:14:27;22.20;62.80
32027;DHT22;18543;50.848;4.596;2022-11-09T15:17:16;22.20;62.90
32027;DHT22;18543;50.848;4.596;2022-11-09T15:19:51;22.20;62.90
32027;DHT22;18543;50.848;4.596;2022-11-09T15:22:46;22.20;62.80
32027;DHT22;18543;50.848;4.596;2022-11-09T15:31:07;22.20;62.70
32027;DHT22;18543;50.848;4.596;2022-11-09T16:09:03;21.50;63.50
32027;DHT22;18543;50.848;4.596;2022-11-09T16:11:29;21.30;62.30
32027;DHT22;18543;50.848;4.596;2022-11-09T16:14:00;21.40;62.30
32027;DHT22;18543;50.848;4.596;2022-11-09T16:16:27;21.40;62.40
32027;DHT22;18543;50.848;4.596;2022-11-09T16:18:55;21.50;62.40
32027;DHT22;18543;50.848;4.596;2022-11-09T16:21:23;21.60;62.40
32027;DHT22;18543;50.848;4.596;2022-11-09T16:23:50;21.60;62.40
32027;DHT22;18543;50.848;4.596;2022-11-09T16:26:23;21.70;62.30
32027;DHT22;18543;50.848;4.596;2022-11-09T16:28:50;21.70;62.30
32027;DHT22;18543;50.848;4.596;2022-11-09T16:31:20;21.70;62.20
32027;DHT22;18543;50.848;4.596;2022-11-09T16:34:06;21.80;62.20
32027;DHT22;18543;50.848;4.596;2022-11-09T16:36:33;21.80;62.20
32027;DHT22;18543;50.848;4.596;2022-11-09T16:39:05;21.90;62.20
32027;DHT22;18543;50.848;4.596;2022-11-09T16:41:39;21.90;62.20
32027;DHT22;18543;50.848;4.596;2022-11-09T16:44:07;21.90;62.10
32027;DHT22;18543;50.848;4.596;2022-11-09T16:46:34;21.90;62.10
32027;DHT22;18543;50.848;4.596;2022-11-09T16:49:01;21.90;62.10
32027;DHT22;18543;50.848;4.596;2022-11-09T16:51:29;21.90;62.10
32027;DHT22;18543;50.848;4.596;2022-11-09T16:53:56;21.90;62.10
32027;DHT22;18543;50.848;4.596;2022-11-09T16:56:23;21.90;62.20
32027;DHT22;18543;50.848;4.596;2022-11-09T16:58:50;21.90;62.20
32027;DHT22;18543;50.848;4.596;2022-11-09T17:01:17;22.00;62.20
32027;DHT22;18543;50.848;4.596;2022-11-09T17:03:49;21.90;62.20
32027;DHT22;18543;50.848;4.596;2022-11-09T17:06:15;22.00;62.20
32027;DHT22;18543;50.848;4.596;2022-11-09T17:08:42;22.00;62.20
32027;DHT22;18543;50.848;4.596;2022-11-09T17:11:11;22.00;62.20
32027;DHT22;18543;50.848;4.596;2022-11-09T17:13:38;22.00;62.20
32027;DHT22;18543;50.848;4.596;2022-11-09T17:16:10;22.00;62.20
32027;DHT22;18543;50.848;4.596;2022-11-09T17:18:38;22.00;62.20
32027;DHT22;18543;50.848;4.596;2022-11-09T17:21:09;22.10;62.30
32027;DHT22;18543;50.848;4.596;2022-11-09T17:23:37;22.10;62.30
32027;DHT22;18543;50.848;4.596;2022-11-09T17:26:05;22.00;62.20
32027;DHT22;18543;50.848;4.596;2022-11-09T17:28:33;22.00;62.20
32027;DHT22;18543;50.848;4.596;2022-11-09T17:31:14;22.10;62.30
32027;DHT22;18543;50.848;4.596;2022-11-09T17:33:44;22.10;62.30
32027;DHT22;18543;50.848;4.596;2022-11-09T17:36:13;22.10;62.30
32027;DHT22;18543;50.848;4.596;2022-11-09T17:38:42;22.10;62.20
32027;DHT22;18543;50.848;4.596;2022-11-09T17:41:14;22.10;62.20
32027;DHT22;18543;50.848;4.596;2022-11-09T17:43:42;22.10;62.20
32027;DHT22;18543;50.848;4.596;2022-11-09T17:46:16;22.10;62.20
32027;DHT22;18543;50.848;4.596;2022-11-09T17:48:45;22.10;62.20
32027;DHT22;18543;50.848;4.596;2022-11-09T17:51:13;22.10;62.20
32027;DHT22;18543;50.848;4.596;2022-11-09T17:53:40;22.10;62.20
32027;DHT22;18543;50.848;4.596;2022-11-09T17:56:08;22.10;62.20
32027;DHT22;18543;50.848;4.596;2022-11-09T17:58:40;22.10;62.20
32027;DHT22;18543;50.848;4.596;2022-11-09T18:01:10;22.10;62.20
32027;DHT22;18543;50.848;4.596;2022-11-09T18:03:38;22.10;62.20
32027;DHT22;18543;50.848;4.596;2022-11-09T18:06:10;22.10;62.10
32027;DHT22;18543;50.848;4.596;2022-11-09T18:08:37;22.10;62.20
32027;DHT22;18543;50.848;4.596;2022-11-09T18:11:04;22.20;62.20
32027;DHT22;18543;50.848;4.596;2022-11-09T18:13:31;22.20;62.20
32027;DHT22;18543;50.848;4.596;2022-11-09T18:16:03;22.20;62.20
32027;DHT22;18543;50.848;4.596;2022-11-09T18:18:29;22.20;62.20
32027;DHT22;18543;50.848;4.596;2022-11-09T18:20:56;22.20;62.20
32027;DHT22;18543;50.848;4.596;2022-11-09T18:23:23;22.20;62.20
32027;DHT22;18543;50.848;4.596;2022-11-09T18:25:56;22.20;62.10
32027;DHT22;18543;50.848;4.596;2022-11-09T18:28:23;22.20;62.70
32027;DHT22;18543;50.848;4.596;2022-11-09T18:30:49;22.20;62.10